Terminal Aerodrome Forecast
Issued by NWS

Home | Current Version | Previous Version | Graphics & Text | Print | Product List | Glossary On
Versions: 1 2 3 4 5 6 7 8 9 10 11 12 13 14 15 16 17 18 19 20 21 22 23 24 25 26 27 28
000
FTUS43 KGRB 241134
TAFRHI
TAF
KRHI 241134Z 2412/2512 10005KT P6SM VCSH SCT015 BKN090
      TEMPO 2412/2414 BKN015
     FM241400 13008KT P6SM SCT035 BKN050
     FM250800 13007KT P6SM SCT025 OVC035 PROB30 2510/2512 6SM -SHRA
      BKN025=

USA.gov is the U.S. government's official web portal to all federal, state and local government web resources and services.